Northeast Iowa Regional Airport
KCCY : now visible

Airfield :











YOU CAN JOIN US ON...

 
LOGIN :

Register | Disclaimer

   EN    FR    IT 

 









Legend :    VFR   Marginal VFR   IFR   Intensive IFR   Very Intensive IFR
Visi :
Ceiling :
>= 8 km
>= 3000ft
5 to 8 km
1000 to 3000 ft
1500m to 5 km
500 to 1000 ft
800 to 1500m
200 to 500 ft
< 800m
< 200 ft
Symbols :   Thunderstorms  Fog  Heavy snow  Heavy precipitations  Wind > 20 kt






- Airport Elevation : 1125 ft


KCCY - Northeast Iowa Regional

CURRENT METAR :
  • 251915Z AUTO 02008KT 3SM -SN SCT008 M01/M02 A3027 RMK AO2

EXPIRED METARs :
  • 251855Z AUTO 03009KT 2 1/2SM -SN SCT008 SCT023 BKN028 M01/M02 A3027 RMK AO2
  • 251835Z AUTO 02009KT 1SM -SN SCT004 SCT011 BKN028 M01/M02 A3028 RMK AO2
  • 251815Z AUTO 02008KT 1SM -SN SCT004 SCT019 M01/M03 A3029 RMK AO2
  • 251755Z AUTO 03008KT 2 1/2SM -SN FEW024 M00/M05 A3030 RMK AO2 VIS 2V5
  • 251735Z AUTO 04010KT 8SM -UP FEW023 SCT029 SCT036 M00/M05 A3030 RMK AO2
  • 251715Z AUTO 02010KT 10SM FEW030 FEW036 M00/M06 A3030 RMK AO2
  • 251655Z AUTO 04009KT 10SM CLR 00/M06 A3030 RMK AO2
  • 251635Z AUTO 04009KT 10SM CLR M00/M06 A3030 RMK AO2
  • 251615Z AUTO 03009KT 10SM FEW070 FEW085 00/M06 A3030 RMK AO2

TAF N/A
KZMP FIR / North America



MET'MAP, your aeronautical weather chart ! - Copyright ORBIFLY December 2007 - Disclaimer

ORBIFLY MET'MAP TEAM :

Programming & Development : Alexandra Zaïnal
Concept & original design : Baudouin d'Aumeries
Assistance for programming : Marc-Olivier Méhu
Technical & hardware support : Manuel Goepfert

Contact : metmap@orbifly.com




SOURCES & CREDITS :

   NOAA       Earth
Advisory